createdAt,value
2023-06-10T00:04:18.437Z,3.03
2023-06-10T00:09:23.846Z,3.85
2023-06-10T00:14:28.217Z,4.40
2023-06-10T00:19:31.545Z,3.35
2023-06-10T00:24:36.515Z,2.67
2023-06-10T00:29:40.376Z,3.00
2023-06-10T00:34:43.879Z,3.83
2023-06-10T00:39:48.540Z,3.40
2023-06-10T00:44:52.608Z,3.90
2023-06-10T00:49:57.129Z,3.35
2023-06-10T00:55:04.291Z,3.72
2023-06-10T01:00:09.984Z,3.03
2023-06-10T01:05:15.252Z,4.03
2023-06-10T01:10:25.918Z,3.28
2023-06-10T01:15:30.917Z,3.40
2023-06-10T01:20:34.987Z,3.33
2023-06-10T01:25:45.253Z,3.80
2023-06-10T01:30:57.535Z,3.38
2023-06-10T01:36:03.030Z,3.83
2023-06-10T01:41:08.446Z,3.33
2023-06-10T01:46:12.440Z,3.08
2023-06-10T01:51:16.240Z,3.35
2023-06-10T01:56:21.703Z,3.65
2023-06-10T02:01:25.463Z,3.13
2023-06-10T02:06:29.533Z,3.55
2023-06-10T02:11:34.610Z,3.40
2023-06-10T02:16:38.110Z,3.80
2023-06-10T02:21:42.676Z,3.93
2023-06-10T02:26:49.052Z,3.17
2023-06-10T02:31:54.037Z,3.65
2023-06-10T02:36:57.789Z,3.37
2023-06-10T02:42:02.923Z,3.38
2023-06-10T02:47:07.099Z,3.55
2023-06-10T02:52:13.295Z,3.50
2023-06-10T02:57:18.566Z,3.47
2023-06-10T03:02:22.653Z,3.30
2023-06-10T03:07:28.823Z,2.53
2023-06-10T03:12:33.867Z,3.53
2023-06-10T03:17:37.597Z,4.20
2023-06-10T03:22:41.438Z,3.10
2023-06-10T03:27:48.464Z,3.20
2023-06-10T03:32:52.485Z,3.05
2023-06-10T03:37:59.021Z,4.03
2023-06-10T03:43:04.698Z,3.47
2023-06-10T03:48:09.828Z,3.70
2023-06-10T03:53:21.308Z,3.53
2023-06-10T03:58:27.359Z,4.20
2023-06-10T04:03:31.052Z,4.18
2023-06-10T04:08:35.324Z,3.13
2023-06-10T04:13:40.721Z,3.65
2023-06-10T04:18:44.335Z,3.83
2023-06-10T04:23:49.771Z,3.35
2023-06-10T04:28:55.609Z,3.78
2023-06-10T04:34:01.932Z,4.00
2023-06-10T04:39:09.148Z,3.58
2023-06-10T04:44:15.491Z,3.50
2023-06-10T04:49:19.711Z,3.70
2023-06-10T04:54:23.670Z,3.30
2023-06-10T04:59:28.897Z,3.15
2023-06-10T05:04:33.004Z,3.08
2023-06-10T05:09:38.100Z,3.47
2023-06-10T05:14:42.874Z,3.55
2023-06-10T05:19:48.283Z,3.40
2023-06-10T05:24:52.307Z,3.67
2023-06-10T05:29:57.607Z,3.63
2023-06-10T05:35:02.058Z,3.22
2023-06-10T05:45:12.920Z,3.50
2023-06-10T05:50:16.718Z,3.90
2023-06-10T05:55:20.537Z,3.50
2023-06-10T06:00:25.382Z,4.03
2023-06-10T06:05:28.733Z,3.90
2023-06-10T06:17:37.840Z,3.78
2023-06-10T06:27:45.552Z,4.28
2023-06-10T06:32:50.605Z,3.83
2023-06-10T06:37:53.992Z,4.00
2023-06-10T06:43:02.686Z,5.00
2023-06-10T06:48:16.807Z,4.40
2023-06-10T06:53:20.351Z,3.95
2023-06-10T06:58:23.810Z,3.95
2023-06-10T07:03:28.496Z,3.80
2023-06-10T07:13:35.418Z,3.78
2023-06-10T07:18:40.440Z,4.20
2023-06-10T07:23:44.698Z,3.85
2023-06-10T07:28:48.114Z,4.35
2023-06-10T07:33:53.026Z,4.50
2023-06-10T07:38:56.766Z,4.95
2023-06-10T07:44:01.455Z,4.47
2023-06-10T07:49:08.301Z,4.60
2023-06-10T07:59:17.569Z,4.35
2023-06-10T08:04:22.590Z,4.30
2023-06-10T08:09:26.512Z,4.65
2023-06-10T08:14:29.930Z,4.90
2023-06-10T08:19:34.742Z,4.43
2023-06-10T08:24:38.338Z,5.40
2023-06-10T08:29:41.738Z,5.30
2023-06-10T08:34:47.010Z,4.90
2023-06-10T08:39:50.977Z,4.93
2023-06-10T08:50:05.201Z,4.93
2023-06-10T08:55:15.129Z,4.85
2023-06-10T09:00:18.971Z,4.10
2023-06-10T09:05:24.143Z,6.60
2023-06-10T09:10:28.147Z,4.85
2023-06-10T09:15:31.720Z,5.85
2023-06-10T09:20:36.950Z,4.75
2023-06-10T09:25:40.772Z,6.35
2023-06-10T09:30:44.259Z,5.33
2023-06-10T09:35:50.476Z,4.68
2023-06-10T09:40:55.349Z,4.55
2023-06-10T09:45:59.335Z,4.63
2023-06-10T09:51:10.212Z,5.00
2023-06-10T09:56:13.767Z,5.57
2023-06-10T10:01:17.439Z,4.82
2023-06-10T10:06:22.435Z,5.03
2023-06-10T10:16:36.868Z,4.65
2023-06-10T10:21:48.260Z,4.63
2023-06-10T10:26:54.269Z,4.47
2023-06-10T10:32:01.756Z,4.63
2023-06-10T10:37:07.329Z,4.20
2023-06-10T10:42:11.594Z,5.22
2023-06-10T10:47:16.468Z,4.60
2023-06-10T10:57:25.279Z,4.82
2023-06-10T11:02:38.317Z,5.07
2023-06-10T11:07:55.416Z,4.43
2023-06-10T11:13:00.377Z,3.78
2023-06-10T11:23:34.701Z,3.95
2023-06-10T11:28:38.284Z,4.07
2023-06-10T11:33:43.168Z,3.87
2023-06-10T11:43:51.542Z,4.18
2023-06-10T11:48:56.129Z,3.92
2023-06-10T11:54:00.908Z,3.80
2023-06-10T11:59:06.683Z,3.95
2023-06-10T12:04:11.462Z,4.40
2023-06-10T12:09:27.040Z,4.22
2023-06-10T12:15:00.257Z,4.40
2023-06-10T12:20:06.794Z,3.97
2023-06-10T12:25:13.141Z,4.45
2023-06-10T12:30:20.493Z,4.30
2023-06-10T12:35:28.615Z,4.30
2023-06-10T12:40:35.094Z,4.65
2023-06-10T12:45:44.468Z,4.40
2023-06-10T12:50:53.956Z,3.72
2023-06-10T12:55:59.119Z,3.80
2023-06-10T13:01:03.198Z,4.35
2023-06-10T13:11:12.334Z,4.97
2023-06-10T13:16:16.011Z,5.38
2023-06-10T13:21:19.457Z,5.45
2023-06-10T13:26:24.460Z,5.82
2023-06-10T13:31:28.050Z,5.88
2023-06-10T13:36:31.590Z,6.10
2023-06-10T13:41:36.488Z,5.60
2023-06-10T13:46:39.980Z,4.80
2023-06-10T13:51:43.401Z,5.32
2023-06-10T13:56:48.224Z,4.47
2023-06-10T14:01:51.689Z,5.00
2023-06-10T14:06:55.165Z,4.45
2023-06-10T14:12:00.251Z,4.75
2023-06-10T14:17:05.367Z,5.05
2023-06-10T14:22:09.450Z,4.95
2023-06-10T14:27:14.224Z,5.75
2023-06-10T14:32:17.727Z,3.70
2023-06-10T14:37:21.115Z,3.78
2023-06-10T14:42:25.993Z,4.05
2023-06-10T14:47:29.493Z,4.18
2023-06-10T14:52:32.956Z,3.72
2023-06-10T14:57:37.671Z,3.88
2023-06-10T15:02:41.561Z,3.90
2023-06-10T15:07:45.179Z,4.50
2023-06-10T15:12:56.562Z,3.97
2023-06-10T15:18:00.127Z,3.83
2023-06-10T15:23:03.550Z,4.28
2023-06-10T15:28:09.246Z,3.72
2023-06-10T15:33:13.434Z,3.72
2023-06-10T15:38:17.041Z,3.90
2023-06-10T15:43:21.757Z,3.67
2023-06-10T15:48:25.201Z,3.70
2023-06-10T15:53:28.764Z,4.07
2023-06-10T15:58:33.534Z,3.92
2023-06-10T16:03:37.086Z,4.05
2023-06-10T16:08:41.634Z,3.63
2023-06-10T16:13:46.466Z,3.85
2023-06-10T16:18:50.442Z,4.03
2023-06-10T16:23:53.918Z,4.00
2023-06-10T16:28:58.636Z,3.92
2023-06-10T16:34:02.100Z,3.70
2023-06-10T16:39:05.559Z,4.13
2023-06-10T16:44:10.447Z,3.70
2023-06-10T16:49:14.513Z,3.17
2023-06-10T16:54:18.149Z,3.58
2023-06-10T16:59:23.214Z,3.45
2023-06-10T17:04:27.100Z,3.80
2023-06-10T17:09:30.498Z,3.72
2023-06-10T17:14:35.948Z,3.67
2023-06-10T17:19:39.320Z,3.42
2023-06-10T17:24:42.851Z,3.07
2023-06-10T17:29:47.582Z,3.08
2023-06-10T17:34:50.971Z,3.75
2023-06-10T17:39:54.386Z,3.17
2023-06-10T17:44:59.082Z,3.13
2023-06-10T17:50:02.542Z,3.65
2023-06-10T17:55:06.377Z,3.40
2023-06-10T18:00:12.379Z,3.75
2023-06-10T18:05:16.137Z,3.83
2023-06-10T18:10:21.846Z,3.33
2023-06-10T18:15:27.755Z,3.60
2023-06-10T18:20:31.861Z,3.95
2023-06-10T18:25:35.337Z,3.75
2023-06-10T18:30:40.211Z,4.22
2023-06-10T18:40:48.018Z,3.50
2023-06-10T18:45:53.636Z,3.55
2023-06-10T18:50:57.738Z,3.47
2023-06-10T18:56:04.123Z,3.83
2023-06-10T19:01:08.947Z,3.17
2023-06-10T19:06:12.376Z,3.35
2023-06-10T19:11:15.887Z,3.15
2023-06-10T19:16:21.253Z,2.97
2023-06-10T19:21:24.728Z,3.28
2023-06-10T19:27:12.682Z,2.88
2023-06-10T19:32:21.187Z,3.28
2023-06-10T19:38:20.398Z,3.10
2023-06-10T19:43:25.177Z,3.67
2023-06-10T19:48:29.864Z,3.47
2023-06-10T19:53:33.276Z,3.28
2023-06-10T19:58:36.763Z,2.80
2023-06-10T20:03:41.446Z,2.95
2023-06-10T20:13:48.331Z,2.90
2023-06-10T20:18:53.122Z,3.08
2023-06-10T20:29:00.406Z,2.35
2023-06-10T20:34:05.106Z,2.28
2023-06-10T20:39:09.167Z,2.33
2023-06-10T20:44:14.812Z,2.03
2023-06-10T20:49:19.658Z,2.28
2023-06-10T20:54:23.028Z,2.13
2023-06-10T20:59:26.389Z,1.80
2023-06-10T21:04:31.413Z,4.10
2023-06-10T21:09:35.559Z,2.00
2023-06-10T21:14:39.113Z,1.83
2023-06-10T21:19:43.909Z,1.85
2023-06-10T21:24:47.332Z,2.20
2023-06-10T21:29:57.891Z,2.35
2023-06-10T21:42:15.555Z,3.20
2023-06-10T21:47:19.176Z,2.78
2023-06-10T21:52:22.609Z,2.50
2023-06-10T21:57:28.046Z,2.25
2023-06-10T22:02:31.663Z,2.22
2023-06-10T22:07:35.372Z,2.22
2023-06-10T22:12:40.171Z,2.33
2023-06-10T22:17:44.159Z,2.40
2023-06-10T22:22:48.411Z,2.50
2023-06-10T22:27:53.326Z,2.60
2023-06-10T22:32:56.731Z,2.70
2023-06-10T22:38:00.138Z,3.30
2023-06-10T22:43:05.160Z,3.55
2023-06-10T22:48:08.824Z,3.75
2023-06-10T22:53:12.330Z,3.35
2023-06-10T22:58:18.879Z,3.38
2023-06-10T23:03:24.403Z,2.55
2023-06-10T23:08:27.742Z,3.03
2023-06-10T23:13:32.556Z,3.00
2023-06-10T23:18:35.936Z,3.22
2023-06-10T23:23:39.676Z,2.72
2023-06-10T23:28:44.676Z,3.60
2023-06-10T23:33:50.172Z,2.90
2023-06-10T23:38:53.885Z,2.88
2023-06-10T23:43:58.639Z,3.05
2023-06-10T23:49:02.514Z,2.33
2023-06-10T23:54:06.226Z,2.47
2023-06-10T23:59:10.919Z,2.55
